ストックホルム/アーランダ の空港の天気 - METARとTAF

ストックホルム・アーランダ空港 ( ESSA / ARN ) - スウェーデン ストックホルム
飛行場実況気象(Metar)
観測時間07/22 19:50 CEST (07/22 17:50 UTC)
風向・風速西 5m/s
視程10km以上
天気現象
なし
気温24℃
湿度44%
気圧1008hPa
METARESSA 221750Z 28010KT CAVOK 24/11 Q1008 NOSIG
過去の天気等 Google飛行場航空写真 Wunderground天気予報

過去48時間のMETAR

飛行場予報(TAF)
発表時間: 7/22 19:30 CEST (7/22 17:30 UTC)
予報対象時間: 22日20時 CEST ~ 23日20時 CEST
風向・風速西 4m/s
視程10km以上
なし
TAF ESSA 221730Z 2218/2318 27008KT CAVOK